Dryland Event Management

Virtual Series: Momentum Tankwa Trek

Presented by:

Cape Multisport Club


Momentum Tankwa Trek ( FULL - Virtual) Results

PRELIMINARY

OVERALL (MALE)

Overall Age Position ID Surname Name Gender Distance Age Group Time Ave Speed Ave Cadence Ave Watts W/kg
1 1 1738866 [WHITE STONE CYCLES] MURRAY CRAIB M 253 Veteran 07:46:17 32.5 80 304 4.05
2 2 537621 DAVEL JACO M 253 Veteran 07:46:49 32.5 83 292 4.23
3 1 13118726 LOUW SAREL M 253 Sub Vet Men 07:50:49 32.2 73 325 4.22
4 2 3837288 PETERSEN KYLE M 253 Sub Vet Men 08:10:42 30.9 64 324 3.68
5 3 38436113 MENEZES ADF M 253 Sub Vet Men 08:28:25 29.8 0 275 3.82
6 3 657302 BAKER MIKE M 253 Veteran 08:33:13 29.5 76 269 3.74
7 4 11552366 SMITH LURICH M 253 Sub Vet Men 08:39:59 29.2 87 280 INF
8 4 17732269 ROUX PIERRE M 253 Veteran 08:40:51 29.1 0 258 3.74
9 5 12764681 DE WET JOHANN M 253 Veteran 08:42:23 29 89 284 3.5
10 5 13273357 BOONZAIER JOHAN M 253 Sub Vet Men 08:46:31 28.8 71 258 3.4
11 6 1521585 COETZEE KRIS M 253 Sub Vet Men 08:47:53 28.7 86 318 3.31
12 6 10996551 S A N T A N A M A R I O M 253 Veteran 08:51:32 28.5 89 272 3.4
13 7 6831803 DIPPENAAR ALWYN M 253 Veteran 08:57:57 28.2 94 250 INF
14 8 199565 HEPBURN DERRICK M 253 Veteran 09:08:08 27.7 84 233 3.37
15 9 2749564 JOUBERT JACQUES M 253 Veteran 09:10:51 27.5 82 278 3.08
16 7 3677588 KNIGHT - CRANX CHRIS M 253 Sub Vet Men 09:11:19 27.5 74 251 3.14
17 1 2243677 WESSELS WYNAND M 253 Masters 09:18:24 27.2 81 226 3.18
18 10 5340944 TESNAAR WILHELM M 253 Veteran 09:24:14 26.9 0 262 3.08
19 8 1177800 DIESEL RICK M 253 Sub Vet Men 09:27:17 26.7 79 266 INF
20 9 6518613 DU PLESSIS JACQUES M 253 Sub Vet Men 09:33:33 26.4 84 259 2.78
21 11 8302475 BRAND JACO M 253 Veteran 09:47:22 25.8 83 237 3.03
22 1189436 RANSOME TREVOR M 253 10:07:53 24.9 80 250 INF
23 2 3815937 TILEY STEPHEN M 253 Masters 10:13:20 24.7 73 213 2.66
24 10 1375395 KEET RAYMOND M 253 Sub Vet Men 10:35:36 23.9 0 236 INF
25 6445231 O BRIEN JASON M 253 10:38:00 23.8 0 0 NAN
26 12 3373726 DU TOIT HENNIE M 253 Veteran 10:44:11 23.5 81 217 2.46
27 11 521116 FUNDARO RYAN M 253 Sub Vet Men 10:45:38 23.5 70 187 2.59
28 18323884 WYNNE GORDON M 253 10:47:30 23.4 79 204 INF
29 13 19599534 GROBLER MORNE M 253 Veteran 10:49:58 23.3 78 197 INF
30 14 21163767 POSON CLINTON M 253 Veteran 10:52:19 23.2 84 167 2.57
31 19930098 MAREE JUSTIN M 253 11:00:45 23 0 192 INF
32 3 2938704 VAN DEN BERGH NICO M 253 Masters 11:01:31 22.9 77 190 2.44
33 15 8300355 GREYLING BAREND M 253 Veteran 11:03:01 22.9 82 205 INF
34 16 7000813 VERCUEIL MARK M 253 Veteran 11:08:23 22.7 0 233 2.28
35 17 1071409 KLEYNSCHELDT WALTER M 253 Veteran 11:10:19 22.6 82 198 2.35
36 18 18600539 ROBERTSON SAM M 253 Veteran 11:20:33 22.3 77 211 2.64
37 12742923 SMITH MICHAEL M 253 11:20:48 22.3 0 213 INF
38 4 27462494 NASH BRANDON M 253 Masters 11:23:41 22.2 16 65 0.61
39 12 30879288 STRAUSS JOHAN M 253 Sub Vet Men 11:39:44 21.7 67 218 2.25
40 5 1768159 AKERS JACK M 253 Masters 11:48:17 21.4 82 181 INF
41 19 6677914 FERNIE JED M 253 Veteran 12:30:18 20.2 78 166 2.08
42 6 30882608 HENNOP STEF M 253 Masters 13:14:42 19.1 0 138 1.76
43 7 12112415 BEHNE RICHARD M 253 Masters 13:17:35 19 45 108 1.13
44 13 174928 IRVINE DARRYL M 184 Sub Vet Men 06:35:40 27.9 77 244 3.49
45 20 44581 HOUNSOM CRAIG M 184 Veteran 06:53:06 26.7 0 247 INF
46 8 14246998 MEINKE CLAUS M 181 Masters 11:06:57 16.2 73 170 1.57
47 21 3592020 OBERHOLZER BRENDAN M 164 Veteran 05:24:08 30.3 79 248 INF
48 14 2944388 PRINSLOO JACO M 164 Sub Vet Men 06:51:56 23.8 0 216 2.28
49 7910376 LOS OENE M 164 08:16:50 19.8 0 133 INF
50 13180018 ENGELS NAUDE M 158 05:51:07 27 0 243 INF
51 15 3847417 SMOUSE NOEL M 114 Sub Vet Men 03:25:50 33.2 92 251 3.92
52 9 2013996 FARMER MARK M 95 Masters 03:43:04 25.5 77 218 INF
53 10720927 WYNNE KEVIN M 95 03:43:31 25.4 78 202 2.97
54 614546 MANDLA KING M 95 04:30:44 21 64 132 INF
55 9231 BRYANT STEVE M 95 04:36:17 20.6 82 166 INF
56 2596994 STRYDOM WYNAND M 92 03:52:54 23.6 93 200 INF
57 22 1631408 KAVANAGH MARK M 89 Veteran 03:12:01 27.8 78 246 3.42
58 16 653507 VZ JARRAD M 89 Sub Vet Men 03:27:38 25.7 77 228 INF
59 23 3527982 ROSIN DEAN M 89 Veteran 03:40:38 24.2 74 208 INF
60 17 1787797 DE WITT CLINTON M 72 Sub Vet Men 02:41:28 26.8 80 210 INF
61 10 12912170 VENTER ETIENNE M 72 Masters 03:07:03 23.2 66 210 INF
62 13332833 CLAASE NICO M 72 03:25:40 21.1 0 160 INF
63 7748721 WRIGHTSON PHILIP M 72 03:32:07 20.4 0 139 INF
64 24 16035472 BEYTELL 🚵‍♂️ 🚵‍♀️ LOURENS M 72 Veteran 03:33:51 20.3 82 174 INF
65 25 3443994 DE SWARDT CHRIS M 23 Veteran 00:43:22 31.2 91 267 3.34
66 22904230 KOLBE LUKAS M 23 00:59:10 22.8 84 169 1.97

OVERALL (FEMALE)

Overall Age Position ID Surname Name Gender Distance Age Group Time Ave Speed Ave Cadence Ave Watts W/kg
1 1 4107832 HALBWACHS AURéLIE F 253 Sub Vet Female 08:51:43 28.5 83 211 3.52
2 1 19616732 THEUNISSEN 🚴‍♀️ KINDY F 253 Masters 09:10:29 27.5 87 229 3.05
3 1 5619298 VAN DER LINDE MARISA F 253 Veteran 09:23:53 26.9 80 208 2.98
4 2 732519 SANDS REBECCA F 253 Masters 09:50:53 25.7 77 190 3.45
5 2 7497976 KERNES CAMILLA F 253 Sub Vet Female 10:15:10 24.7 72 181 INF
6 2 3453662 SHALES GEMMA F 253 Veteran 10:20:54 24.4 74 159 3
7 3 4761043 BLEWETT ANNE F 253 Masters 10:34:10 23.9 75 160 2.9
8 3 8505905 DE WITT CARLA F 253 Sub Vet Female 10:36:39 23.8 75 157 INF
9 3 4048548 BLOEMFONTEIN GIGGELTJIE VAN F 253 Veteran 10:50:49 23.3 73 120 1.41
10 4 4534271 JORDAAN-KOLBE SALOMIE F 253 Masters 10:57:26 23.1 0 171 2.63
11 4 5529429 LUTZ MARIETJIE F 253 Veteran 10:57:34 23.1 82 181 2.65
12 5 28246701 BREARLEY KIM F 253 Masters 11:10:37 22.6 84 138 2.71
13 6 4393056 SMEDEMA ELMARIE F 253 Masters 12:06:57 20.9 54 115 INF
14 5 27973675 J VAN RENSBURG SARAH-JANE F 164 Veteran 07:33:36 21.7 0 145 2.13
15 29811530 ROUHOTAS CHANTEL F 95 03:34:49 26.5 85 180 INF
16 7 33253491 DU CHENNE CHANTAL F 92 Masters 03:10:21 28.8 0 192 3.25
17 17642327 KRUGER DORET F 72 03:57:30 18.2 0 107 INF
18 6 3029739 YORK ELMA F 72 Veteran 04:05:36 17.6 72 111 INF